Time;durP1;ratioP1;P1;durP2;ratioP2;P2;SDS_P1;SDS_P2;PMS_P1;PMS_P2;Temp;Humidity;BMP_temperature;BMP_pressure;BME280_temperature;BME280_humidity;BME280_pressure;Samples;Min_cycle;Max_cycle;Signal;HPM_P1;HPM_P2
2022/10/27 00:01:04;;;;;;;;;;;13.80;99.90;;;;;;5053355;28;20075;-57
2022/10/27 00:03:31;;;;;;;;;;;13.80;99.90;;;;;;5052635;28;19936;-58
2022/10/27 00:06:03;;;;;;;;;;;13.80;99.90;;;;;;5054417;28;20490;-57
2022/10/27 00:08:29;;;;;;;;;;;13.70;99.90;;;;;;5053865;28;20281;-57
2022/10/27 00:10:56;;;;;;;;;;;13.60;99.90;;;;;;5053321;28;19935;-57
2022/10/27 00:13:23;;;;;;;;;;;13.60;99.90;;;;;;5052853;28;20493;-57
2022/10/27 00:15:55;;;;;;;;;;;13.70;99.90;;;;;;5052262;28;20506;-57
2022/10/27 00:18:22;;;;;;;;;;;13.60;99.90;;;;;;5052549;28;19933;-57
2022/10/27 00:20:56;;;;;;;;;;;13.70;99.90;;;;;;5052407;28;19929;-58
2022/10/27 00:23:24;;;;;;;;;;;13.60;99.90;;;;;;5053051;28;19929;-58
2022/10/27 00:25:52;;;;;;;;;;;13.60;99.90;;;;;;5054411;28;20433;-57
2022/10/27 00:28:19;;;;;;;;;;;13.60;99.90;;;;;;5051744;28;20404;-57
2022/10/27 00:30:45;;;;;;;;;;;13.60;99.90;;;;;;5052812;28;19936;-57
2022/10/27 00:33:12;;;;;;;;;;;13.60;99.90;;;;;;5053120;28;19936;-57
2022/10/27 00:35:38;;;;;;;;;;;13.60;99.90;;;;;;5054091;28;19929;-58
2022/10/27 00:38:05;;;;;;;;;;;13.60;99.90;;;;;;5052590;28;20426;-57
2022/10/27 00:40:37;;;;;;;;;;;13.60;99.90;;;;;;5053766;28;19929;-57
2022/10/27 00:43:03;;;;;;;;;;;13.60;99.90;;;;;;5052438;28;19928;-58
2022/10/27 00:45:30;;;;;;;;;;;13.60;99.90;;;;;;5053025;28;19983;-57
2022/10/27 00:47:57;;;;;;;;;;;13.60;99.90;;;;;;5052062;28;20723;-57
2022/10/27 00:50:25;;;;;;;;;;;13.60;99.90;;;;;;5053603;28;19935;-57
2022/10/27 00:52:53;;;;;;;;;;;13.60;99.90;;;;;;5052609;28;19929;-57
2022/10/27 00:55:22;;;;;;;;;;;13.60;99.90;;;;;;5052526;28;19940;-58
2022/10/27 00:57:52;;;;;;;;;;;13.60;99.90;;;;;;5053650;28;20487;-57
2022/10/27 01:00:19;;;;;;;;;;;13.60;99.90;;;;;;5051562;28;19933;-57
2022/10/27 01:02:46;;;;;;;;;;;13.60;99.90;;;;;;5052999;28;20368;-58
2022/10/27 01:05:16;;;;;;;;;;;13.60;99.90;;;;;;5053443;28;19935;-58
2022/10/27 01:07:44;;;;;;;;;;;13.60;99.90;;;;;;5053438;28;19940;-57
2022/10/27 01:10:11;;;;;;;;;;;13.60;99.90;;;;;;5052945;28;20307;-58
2022/10/27 01:12:38;;;;;;;;;;;13.60;99.90;;;;;;5051109;28;19936;-58
2022/10/27 01:15:07;;;;;;;;;;;13.60;99.90;;;;;;5051901;28;19935;-57
2022/10/27 01:17:39;;;;;;;;;;;13.60;99.90;;;;;;5053229;28;19932;-58
2022/10/27 01:20:28;;;;;;;;;;;13.60;99.90;;;;;;5052394;28;20388;-57
2022/10/27 01:22:58;;;;;;;;;;;13.60;99.90;;;;;;5052407;28;19971;-57
2022/10/27 01:25:43;;;;;;;;;;;13.60;99.90;;;;;;5052796;28;19940;-57
2022/10/27 01:28:32;;;;;;;;;;;13.60;99.90;;;;;;5052132;28;19940;-57
2022/10/27 01:31:02;;;;;;;;;;;13.60;99.90;;;;;;5052130;28;19929;-58
2022/10/27 01:33:32;;;;;;;;;;;13.70;99.90;;;;;;5050973;28;19971;-57
2022/10/27 01:36:02;;;;;;;;;;;13.70;99.90;;;;;;5052805;28;19932;-57
2022/10/27 01:38:30;;;;;;;;;;;13.70;99.90;;;;;;5051423;28;19933;-57
2022/10/27 01:40:59;;;;;;;;;;;13.70;99.90;;;;;;5052001;28;19929;-57
2022/10/27 01:43:27;;;;;;;;;;;13.70;99.90;;;;;;5052047;28;19928;-57
2022/10/27 01:45:54;;;;;;;;;;;13.70;99.90;;;;;;5052509;28;20926;-57
2022/10/27 01:48:22;;;;;;;;;;;13.80;99.90;;;;;;5052423;28;19933;-58
2022/10/27 01:50:49;;;;;;;;;;;13.80;99.90;;;;;;5052127;28;19936;-57
2022/10/27 01:53:15;;;;;;;;;;;13.80;99.90;;;;;;5051742;28;21868;-58
2022/10/27 01:55:47;;;;;;;;;;;13.80;99.90;;;;;;5051813;28;20335;-57
2022/10/27 01:58:30;;;;;;;;;;;13.80;99.90;;;;;;5051516;28;19939;-57
2022/10/27 02:01:03;;;;;;;;;;;13.90;99.90;;;;;;5052695;28;20398;-58
2022/10/27 02:03:34;;;;;;;;;;;13.90;99.90;;;;;;5051324;28;19936;-57
2022/10/27 02:06:04;;;;;;;;;;;13.90;99.90;;;;;;5052275;28;19936;-58
2022/10/27 02:08:36;;;;;;;;;;;13.90;99.90;;;;;;5049377;28;21540;-57
2022/10/27 02:11:04;;;;;;;;;;;13.90;99.90;;;;;;5051927;28;19928;-58
2022/10/27 02:13:32;;;;;;;;;;;13.90;99.90;;;;;;5051902;28;19928;-58
2022/10/27 02:16:00;;;;;;;;;;;13.90;99.90;;;;;;5051702;28;19936;-57
2022/10/27 02:18:29;;;;;;;;;;;13.90;99.90;;;;;;5050767;28;19962;-58
2022/10/27 02:20:59;;;;;;;;;;;13.90;99.90;;;;;;5050441;28;19940;-58
2022/10/27 02:23:26;;;;;;;;;;;14.00;99.90;;;;;;5051292;28;20416;-57
2022/10/27 02:25:56;;;;;;;;;;;14.00;99.90;;;;;;5051042;28;19929;-57
2022/10/27 02:28:25;;;;;;;;;;;14.00;99.90;;;;;;5050941;28;19944;-57
2022/10/27 02:30:53;;;;;;;;;;;14.00;99.90;;;;;;5050986;28;19929;-58
2022/10/27 02:33:23;;;;;;;;;;;14.00;99.90;;;;;;5051282;28;19935;-57
2022/10/27 02:35:49;;;;;;;;;;;13.90;99.90;;;;;;5050534;28;20235;-58
2022/10/27 02:38:17;;;;;;;;;;;14.00;99.90;;;;;;5051843;28;19932;-57
2022/10/27 02:40:44;;;;;;;;;;;14.00;99.90;;;;;;5051122;28;19933;-57
2022/10/27 02:43:10;;;;;;;;;;;14.00;99.90;;;;;;5052826;28;19929;-57
2022/10/27 02:45:37;;;;;;;;;;;14.00;99.90;;;;;;5051213;28;19932;-58
2022/10/27 02:48:04;;;;;;;;;;;14.00;99.90;;;;;;5051139;28;19971;-57
2022/10/27 02:50:31;;;;;;;;;;;14.00;99.90;;;;;;5049945;28;19929;-57
2022/10/27 02:52:57;;;;;;;;;;;14.00;99.90;;;;;;5051524;28;19929;-57
2022/10/27 02:55:25;;;;;;;;;;;14.00;99.90;;;;;;5052237;28;19937;-57
2022/10/27 02:57:52;;;;;;;;;;;14.00;99.90;;;;;;5048832;28;19932;-57
2022/10/27 03:00:18;;;;;;;;;;;14.00;99.90;;;;;;5050331;28;19935;-58
2022/10/27 03:02:47;;;;;;;;;;;14.00;99.90;;;;;;5051205;28;20665;-57
2022/10/27 03:05:13;;;;;;;;;;;14.10;99.90;;;;;;5049269;28;19928;-57
2022/10/27 03:07:40;;;;;;;;;;;14.00;99.90;;;;;;5050268;28;20483;-57
2022/10/27 03:10:07;;;;;;;;;;;14.00;99.90;;;;;;5049316;28;20089;-57
2022/10/27 03:12:35;;;;;;;;;;;14.00;99.90;;;;;;5050697;28;19929;-57
2022/10/27 03:15:01;;;;;;;;;;;14.00;99.90;;;;;;5050010;28;19929;-58
2022/10/27 03:17:28;;;;;;;;;;;14.00;99.90;;;;;;5050953;28;19932;-57
2022/10/27 03:19:55;;;;;;;;;;;14.00;99.90;;;;;;5050626;28;19933;-57
2022/10/27 03:22:21;;;;;;;;;;;14.00;99.90;;;;;;5051483;28;20398;-58
2022/10/27 03:24:48;;;;;;;;;;;14.00;99.90;;;;;;5051667;28;20480;-58
2022/10/27 03:27:15;;;;;;;;;;;14.00;99.90;;;;;;5050795;28;19943;-57
2022/10/27 03:29:43;;;;;;;;;;;14.00;99.90;;;;;;5051370;28;19932;-57
2022/10/27 03:32:09;;;;;;;;;;;14.00;99.90;;;;;;5051214;28;20242;-57
2022/10/27 03:34:36;;;;;;;;;;;14.00;99.90;;;;;;5051962;28;20432;-57
2022/10/27 03:37:02;;;;;;;;;;;14.00;99.90;;;;;;5050596;28;19971;-57
2022/10/27 03:39:29;;;;;;;;;;;14.00;99.90;;;;;;5050988;28;19929;-57
2022/10/27 03:41:56;;;;;;;;;;;14.00;99.90;;;;;;5051725;28;20403;-57
2022/10/27 03:44:22;;;;;;;;;;;14.00;99.90;;;;;;5051702;28;19939;-57
2022/10/27 03:46:50;;;;;;;;;;;14.00;99.90;;;;;;5050857;28;19933;-57
2022/10/27 03:49:17;;;;;;;;;;;14.00;99.90;;;;;;5050639;28;19928;-58
2022/10/27 03:51:43;;;;;;;;;;;14.00;99.90;;;;;;5051988;28;19929;-57
2022/10/27 03:54:10;;;;;;;;;;;14.00;99.90;;;;;;5051924;28;19940;-58
2022/10/27 03:56:37;;;;;;;;;;;14.00;99.90;;;;;;5050455;28;20516;-58
2022/10/27 03:59:03;;;;;;;;;;;14.00;99.90;;;;;;5049136;28;20518;-57
2022/10/27 04:01:32;;;;;;;;;;;14.00;99.90;;;;;;5050748;28;19929;-55
2022/10/27 04:04:00;;;;;;;;;;;14.00;99.90;;;;;;5051294;28;20410;-55
2022/10/27 04:06:27;;;;;;;;;;;14.00;99.90;;;;;;5050998;28;20032;-57
2022/10/27 04:08:53;;;;;;;;;;;14.00;99.90;;;;;;5051186;28;19929;-58
2022/10/27 04:11:20;;;;;;;;;;;14.00;99.90;;;;;;5051158;28;19928;-57
2022/10/27 04:13:46;;;;;;;;;;;14.00;99.90;;;;;;5049678;28;19935;-57
2022/10/27 04:16:13;;;;;;;;;;;14.00;99.90;;;;;;5050711;28;19933;-57
2022/10/27 04:18:40;;;;;;;;;;;13.90;99.90;;;;;;5053465;28;19936;-58
2022/10/27 04:21:08;;;;;;;;;;;14.00;99.90;;;;;;5053843;28;19928;-57
2022/10/27 04:23:34;;;;;;;;;;;13.90;99.90;;;;;;5053003;28;19928;-57
2022/10/27 04:26:01;;;;;;;;;;;13.90;99.90;;;;;;5053894;28;20090;-57
2022/10/27 04:28:27;;;;;;;;;;;13.90;99.90;;;;;;5053817;28;19928;-57
2022/10/27 04:30:54;;;;;;;;;;;13.90;99.90;;;;;;5053092;28;19936;-58
2022/10/27 04:33:21;;;;;;;;;;;13.90;99.90;;;;;;5055259;28;19936;-58
2022/10/27 04:35:48;;;;;;;;;;;13.90;99.90;;;;;;5052744;28;19943;-58
2022/10/27 04:38:16;;;;;;;;;;;13.90;99.90;;;;;;5052411;28;19928;-57
2022/10/27 04:40:42;;;;;;;;;;;13.90;99.90;;;;;;5052338;28;19932;-57
2022/10/27 04:43:09;;;;;;;;;;;14.00;99.90;;;;;;5054115;28;20336;-57
2022/10/27 04:45:36;;;;;;;;;;;14.00;99.90;;;;;;5053532;28;20374;-57
2022/10/27 04:48:02;;;;;;;;;;;14.00;99.90;;;;;;5052516;28;22026;-58
2022/10/27 04:50:29;;;;;;;;;;;14.00;99.90;;;;;;5053904;28;19928;-57
2022/10/27 04:52:56;;;;;;;;;;;14.00;99.90;;;;;;5053317;28;19928;-57
2022/10/27 04:55:24;;;;;;;;;;;14.00;99.90;;;;;;5054086;28;19932;-57
2022/10/27 04:57:51;;;;;;;;;;;14.00;99.90;;;;;;5052350;28;19932;-58
2022/10/27 05:00:18;;;;;;;;;;;14.00;99.90;;;;;;5052592;28;19928;-57
2022/10/27 05:02:44;;;;;;;;;;;14.00;99.90;;;;;;5053662;28;19958;-57
2022/10/27 05:05:11;;;;;;;;;;;14.00;99.90;;;;;;5053278;28;20426;-57
2022/10/27 05:07:38;;;;;;;;;;;14.10;99.90;;;;;;5050916;28;20134;-57
2022/10/27 05:10:05;;;;;;;;;;;14.10;99.90;;;;;;5049998;28;19935;-57
2022/10/27 05:12:33;;;;;;;;;;;14.10;99.90;;;;;;5051082;28;20251;-57
2022/10/27 05:14:59;;;;;;;;;;;14.10;99.90;;;;;;5050653;28;20323;-57
2022/10/27 05:17:26;;;;;;;;;;;14.10;99.90;;;;;;5051494;28;19995;-58
2022/10/27 05:19:53;;;;;;;;;;;14.10;99.90;;;;;;5051710;28;20384;-58
2022/10/27 05:22:19;;;;;;;;;;;14.10;99.90;;;;;;5051570;28;19935;-57
2022/10/27 05:24:46;;;;;;;;;;;14.10;99.90;;;;;;5051335;28;19940;-57
2022/10/27 05:27:12;;;;;;;;;;;14.10;99.90;;;;;;5050378;28;19929;-57
2022/10/27 05:29:40;;;;;;;;;;;14.10;99.90;;;;;;5051344;28;19929;-58
2022/10/27 05:32:07;;;;;;;;;;;14.10;99.90;;;;;;5051512;28;19935;-57
2022/10/27 05:34:34;;;;;;;;;;;14.00;99.90;;;;;;5053466;28;19932;-57
2022/10/27 05:37:00;;;;;;;;;;;14.00;99.90;;;;;;5051232;28;20015;-57
2022/10/27 05:39:27;;;;;;;;;;;14.10;99.90;;;;;;5052697;28;19935;-57
2022/10/27 05:41:54;;;;;;;;;;;14.10;99.90;;;;;;5052081;28;19941;-57
2022/10/27 05:44:20;;;;;;;;;;;14.10;99.90;;;;;;5051813;28;19933;-57
2022/10/27 05:46:48;;;;;;;;;;;14.10;99.90;;;;;;5049444;28;19935;-57
2022/10/27 05:49:15;;;;;;;;;;;14.10;99.90;;;;;;5049905;28;19929;-57
2022/10/27 05:51:42;;;;;;;;;;;14.10;99.90;;;;;;5050509;28;19966;-57
2022/10/27 05:54:08;;;;;;;;;;;14.10;99.90;;;;;;5048188;28;20070;-58
2022/10/27 05:56:35;;;;;;;;;;;14.10;99.90;;;;;;5048563;28;19935;-57
2022/10/27 05:59:02;;;;;;;;;;;14.10;99.90;;;;;;5052151;28;19928;-57
2022/10/27 06:01:28;;;;;;;;;;;14.10;99.90;;;;;;5049295;28;19935;-57
2022/10/27 06:03:56;;;;;;;;;;;14.10;99.90;;;;;;5053392;28;20044;-57
2022/10/27 06:06:23;;;;;;;;;;;14.10;99.90;;;;;;5052785;28;20063;-57
2022/10/27 06:08:49;;;;;;;;;;;14.10;99.90;;;;;;5051991;28;19928;-57
2022/10/27 06:11:16;;;;;;;;;;;14.20;99.90;;;;;;5051550;28;19928;-57
2022/10/27 06:13:43;;;;;;;;;;;14.20;99.90;;;;;;5050302;28;20320;-58
2022/10/27 06:16:09;;;;;;;;;;;14.20;99.90;;;;;;5050705;28;20378;-57
2022/10/27 06:18:36;;;;;;;;;;;14.20;99.90;;;;;;5050447;28;19928;-57
2022/10/27 06:21:04;;;;;;;;;;;14.20;99.90;;;;;;5052073;28;19935;-57
2022/10/27 06:23:31;;;;;;;;;;;14.20;99.90;;;;;;5053138;28;19940;-57
2022/10/27 06:25:57;;;;;;;;;;;14.20;99.90;;;;;;5053690;28;19935;-57
2022/10/27 06:28:24;;;;;;;;;;;14.20;99.90;;;;;;5053013;28;20955;-58
2022/10/27 06:30:52;;;;;;;;;;;14.20;99.90;;;;;;5053826;28;20797;-57
2022/10/27 06:33:18;;;;;;;;;;;14.10;99.90;;;;;;5052588;28;20439;-58
2022/10/27 06:35:45;;;;;;;;;;;14.10;99.90;;;;;;5051611;28;19929;-58
2022/10/27 06:38:15;;;;;;;;;;;14.10;99.90;;;;;;5050764;28;19929;-58
2022/10/27 06:40:42;;;;;;;;;;;14.10;99.90;;;;;;5052598;28;20034;-58
2022/10/27 06:43:09;;;;;;;;;;;14.10;99.90;;;;;;5050654;28;19934;-57
2022/10/27 06:45:35;;;;;;;;;;;14.10;99.90;;;;;;5050492;28;19932;-58
2022/10/27 06:48:02;;;;;;;;;;;14.20;99.90;;;;;;5050109;28;19940;-57
2022/10/27 06:50:29;;;;;;;;;;;14.10;99.90;;;;;;5049967;28;19936;-58
2022/10/27 06:52:56;;;;;;;;;;;14.20;99.90;;;;;;5049363;28;19933;-57
2022/10/27 06:55:24;;;;;;;;;;;14.10;99.90;;;;;;5047956;28;19928;-58
2022/10/27 06:57:51;;;;;;;;;;;14.20;99.90;;;;;;5050131;28;20345;-58
2022/10/27 07:00:17;;;;;;;;;;;14.20;99.90;;;;;;5047876;28;19929;-58
2022/10/27 07:02:44;;;;;;;;;;;14.20;99.90;;;;;;5049392;28;20363;-58
2022/10/27 07:05:11;;;;;;;;;;;14.30;99.90;;;;;;5050712;28;19936;-57
2022/10/27 07:07:38;;;;;;;;;;;14.30;99.90;;;;;;5049573;28;19935;-58
2022/10/27 07:10:05;;;;;;;;;;;14.30;99.90;;;;;;5050027;28;19937;-58
2022/10/27 07:12:33;;;;;;;;;;;14.30;99.90;;;;;;5049877;28;19933;-58
2022/10/27 07:15:00;;;;;;;;;;;14.40;99.90;;;;;;5050912;28;19929;-58
2022/10/27 07:17:27;;;;;;;;;;;14.40;99.90;;;;;;5050741;28;19933;-58
2022/10/27 07:19:54;;;;;;;;;;;14.40;99.90;;;;;;5049334;28;19935;-58
2022/10/27 07:22:20;;;;;;;;;;;14.40;99.90;;;;;;5048016;28;19933;-58
2022/10/27 07:24:47;;;;;;;;;;;14.50;99.90;;;;;;5051655;28;19928;-58
2022/10/27 07:27:16;;;;;;;;;;;14.50;99.90;;;;;;5049970;28;19935;-58
2022/10/27 07:29:44;;;;;;;;;;;14.50;99.90;;;;;;5052075;28;20039;-58
2022/10/27 07:32:11;;;;;;;;;;;14.60;99.90;;;;;;5051421;28;19933;-58
2022/10/27 07:34:38;;;;;;;;;;;14.60;99.90;;;;;;5050140;28;19928;-58
2022/10/27 07:37:04;;;;;;;;;;;14.70;99.90;;;;;;5049671;28;19935;-57
2022/10/27 07:39:32;;;;;;;;;;;14.70;99.90;;;;;;5048415;28;19928;-57
2022/10/27 07:41:58;;;;;;;;;;;14.70;99.90;;;;;;5050801;28;19944;-58
2022/10/27 07:44:25;;;;;;;;;;;14.70;99.90;;;;;;5049660;28;20079;-57
2022/10/27 07:46:53;;;;;;;;;;;14.80;99.90;;;;;;5051936;28;19951;-58
2022/10/27 07:49:20;;;;;;;;;;;14.80;99.90;;;;;;5053727;28;19974;-58
2022/10/27 07:51:46;;;;;;;;;;;14.80;99.90;;;;;;5053045;28;20419;-58
2022/10/27 07:54:13;;;;;;;;;;;14.80;99.90;;;;;;5055162;28;20058;-58
2022/10/27 07:56:40;;;;;;;;;;;14.80;99.90;;;;;;5055324;28;20433;-58
2022/10/27 07:59:06;;;;;;;;;;;14.90;99.90;;;;;;5054430;28;20711;-58
2022/10/27 08:01:33;;;;;;;;;;;14.90;99.90;;;;;;5055850;28;20619;-58
2022/10/27 08:04:01;;;;;;;;;;;14.90;99.90;;;;;;5054761;28;20392;-57
2022/10/27 08:06:28;;;;;;;;;;;15.00;99.90;;;;;;5054679;28;19928;-58
2022/10/27 08:08:55;;;;;;;;;;;15.00;99.90;;;;;;5054044;28;19936;-58
2022/10/27 08:11:22;;;;;;;;;;;15.00;99.90;;;;;;5054097;28;19933;-58
2022/10/27 08:13:49;;;;;;;;;;;15.10;99.90;;;;;;5054451;28;20021;-58
2022/10/27 08:16:15;;;;;;;;;;;15.10;99.90;;;;;;5055616;28;20272;-58
2022/10/27 08:18:42;;;;;;;;;;;15.10;99.90;;;;;;5056108;28;20122;-57
2022/10/27 08:21:10;;;;;;;;;;;15.20;99.90;;;;;;5055881;28;19932;-57
2022/10/27 08:23:37;;;;;;;;;;;15.20;99.90;;;;;;5054671;28;19929;-58
2022/10/27 08:26:04;;;;;;;;;;;15.30;99.90;;;;;;5055456;28;20406;-58
2022/10/27 08:28:30;;;;;;;;;;;15.30;99.90;;;;;;5053866;28;20429;-57
2022/10/27 08:30:58;;;;;;;;;;;15.30;99.90;;;;;;5053298;28;19952;-58
2022/10/27 08:33:25;;;;;;;;;;;15.30;99.90;;;;;;5053341;28;20015;-57
2022/10/27 08:35:51;;;;;;;;;;;15.30;99.90;;;;;;5051695;28;19928;-58
2022/10/27 08:38:19;;;;;;;;;;;15.40;99.90;;;;;;5052877;28;19935;-58
2022/10/27 08:41:02;;;;;;;;;;;15.40;99.90;;;;;;5055662;28;20457;-58
2022/10/27 08:43:42;;;;;;;;;;;15.40;99.90;;;;;;5054442;28;19928;-58
2022/10/27 08:46:11;;;;;;;;;;;15.40;99.90;;;;;;5054040;28;19940;-58
2022/10/27 08:48:38;;;;;;;;;;;15.40;99.90;;;;;;5055028;28;19929;-58
2022/10/27 08:51:06;;;;;;;;;;;15.50;99.90;;;;;;5054443;28;19933;-57
2022/10/27 08:53:35;;;;;;;;;;;15.60;99.90;;;;;;5054166;28;21154;-58
2022/10/27 08:56:04;;;;;;;;;;;15.60;99.90;;;;;;5054592;28;19929;-58
2022/10/27 09:01:21;;;;;;;;;;;15.80;99.90;;;;;;5050223;28;20893;-57
2022/10/27 09:03:57;;;;;;;;;;;15.90;99.90;;;;;;5052818;28;19936;-57
2022/10/27 09:06:25;;;;;;;;;;;16.00;99.90;;;;;;5053206;28;19929;-58
2022/10/27 09:08:58;;;;;;;;;;;16.00;99.90;;;;;;5053351;28;19929;-58
2022/10/27 09:11:28;;;;;;;;;;;16.20;99.90;;;;;;5053864;28;19932;-58
2022/10/27 09:14:02;;;;;;;;;;;16.20;99.90;;;;;;5052225;28;19929;-58
2022/10/27 09:16:32;;;;;;;;;;;16.30;99.90;;;;;;5053618;28;19935;-58
2022/10/27 09:19:00;;;;;;;;;;;16.30;99.90;;;;;;5052673;28;19935;-58
2022/10/27 09:21:27;;;;;;;;;;;16.50;99.90;;;;;;5053549;28;19933;-57
2022/10/27 09:23:57;;;;;;;;;;;16.50;99.90;;;;;;5052720;28;19932;-58
2022/10/27 09:26:26;;;;;;;;;;;16.50;99.90;;;;;;5052305;28;19951;-58
2022/10/27 09:28:53;;;;;;;;;;;16.60;99.90;;;;;;5051667;28;19971;-58
2022/10/27 09:31:23;;;;;;;;;;;16.60;99.90;;;;;;5051871;28;19937;-58
2022/10/27 09:33:53;;;;;;;;;;;16.60;99.90;;;;;;5051878;28;19933;-58
2022/10/27 09:36:21;;;;;;;;;;;16.60;99.90;;;;;;5052106;28;19935;-58
2022/10/27 09:38:47;;;;;;;;;;;16.70;99.90;;;;;;5046797;28;19928;-58
2022/10/27 09:41:15;;;;;;;;;;;16.70;99.90;;;;;;5049990;28;20132;-58
2022/10/27 09:43:42;;;;;;;;;;;16.70;99.90;;;;;;5047507;28;19936;-58
2022/10/27 09:46:11;;;;;;;;;;;16.70;99.90;;;;;;5049341;28;20452;-58
2022/10/27 09:48:39;;;;;;;;;;;16.70;99.90;;;;;;5046000;28;19952;-58
2022/10/27 09:51:12;;;;;;;;;;;16.80;99.90;;;;;;5049390;28;20506;-58
2022/10/27 09:53:40;;;;;;;;;;;16.90;99.90;;;;;;5050566;28;19929;-58
2022/10/27 09:56:08;;;;;;;;;;;16.80;99.90;;;;;;5049474;28;19928;-58
2022/10/27 09:58:41;;;;;;;;;;;16.90;99.90;;;;;;5050176;28;19972;-58
2022/10/27 10:01:10;;;;;;;;;;;16.80;99.90;;;;;;5048432;28;20621;-58
2022/10/27 10:03:36;;;;;;;;;;;17.00;99.90;;;;;;5049614;28;19936;-58
2022/10/27 10:06:05;;;;;;;;;;;17.00;99.90;;;;;;5049945;28;19937;-58
2022/10/27 10:08:32;;;;;;;;;;;17.00;99.90;;;;;;5049968;28;19976;-58
2022/10/27 10:11:00;;;;;;;;;;;17.00;99.90;;;;;;5048513;28;19933;-58
2022/10/27 10:13:27;;;;;;;;;;;17.00;99.90;;;;;;5049303;28;19928;-58
2022/10/27 10:16:06;;;;;;;;;;;17.00;99.90;;;;;;5047904;28;20375;-58
2022/10/27 10:18:34;;;;;;;;;;;17.00;99.90;;;;;;5050866;28;20406;-58
2022/10/27 10:21:01;;;;;;;;;;;17.00;99.90;;;;;;5049818;28;20470;-57
2022/10/27 10:23:30;;;;;;;;;;;17.10;99.90;;;;;;5048485;28;20328;-58
2022/10/27 10:25:57;;;;;;;;;;;17.20;99.90;;;;;;5050002;28;20081;-57
2022/10/27 10:28:29;;;;;;;;;;;17.20;99.90;;;;;;5049309;28;20094;-58
2022/10/27 10:30:56;;;;;;;;;;;17.30;99.90;;;;;;5050108;28;20392;-58
2022/10/27 10:33:25;;;;;;;;;;;17.30;99.90;;;;;;5048901;28;20086;-58
2022/10/27 10:35:52;;;;;;;;;;;17.30;99.90;;;;;;5050008;28;19928;-58
2022/10/27 10:38:25;;;;;;;;;;;17.30;99.90;;;;;;5049421;28;19935;-58
2022/10/27 10:40:56;;;;;;;;;;;17.30;99.90;;;;;;5050196;28;19956;-58
2022/10/27 10:43:25;;;;;;;;;;;17.30;99.90;;;;;;5048224;28;19928;-58
2022/10/27 10:45:52;;;;;;;;;;;17.40;99.90;;;;;;5050248;28;19929;-57
2022/10/27 10:48:38;;;;;;;;;;;17.40;99.90;;;;;;5049043;28;19929;-58
2022/10/27 10:51:07;;;;;;;;;;;17.40;99.90;;;;;;5049931;28;21017;-58
2022/10/27 10:53:37;;;;;;;;;;;17.50;99.90;;;;;;5050554;28;19933;-58
2022/10/27 10:56:05;;;;;;;;;;;17.50;99.90;;;;;;5050507;28;20306;-58
2022/10/27 10:58:35;;;;;;;;;;;17.50;99.90;;;;;;5048230;28;19951;-58
2022/10/27 11:01:02;;;;;;;;;;;17.60;99.90;;;;;;5050190;28;19955;-58
2022/10/27 11:03:31;;;;;;;;;;;17.60;99.90;;;;;;5049136;28;19929;-58
2022/10/27 11:05:59;;;;;;;;;;;17.70;99.90;;;;;;5050403;28;19935;-58
2022/10/27 11:08:32;;;;;;;;;;;17.80;99.90;;;;;;5049057;28;20384;-58
2022/10/27 11:10:59;;;;;;;;;;;17.80;99.90;;;;;;5048595;28;20434;-58
2022/10/27 11:13:28;;;;;;;;;;;17.90;99.90;;;;;;5048115;28;20077;-58
2022/10/27 11:15:57;;;;;;;;;;;17.90;99.90;;;;;;5048901;28;19933;-58
2022/10/27 11:18:26;;;;;;;;;;;17.90;99.90;;;;;;5049360;28;20434;-58
2022/10/27 11:20:54;;;;;;;;;;;18.00;99.90;;;;;;5048918;28;19932;-58
2022/10/27 11:23:27;;;;;;;;;;;18.00;99.90;;;;;;5049232;28;19928;-58
2022/10/27 11:25:56;;;;;;;;;;;18.10;99.90;;;;;;5047768;28;19935;-58
2022/10/27 11:28:24;;;;;;;;;;;18.10;99.90;;;;;;5051671;28;20019;-58
2022/10/27 11:30:53;;;;;;;;;;;18.20;99.90;;;;;;5052609;28;19940;-58
2022/10/27 11:33:22;;;;;;;;;;;18.20;99.90;;;;;;5051300;28;19935;-58
2022/10/27 11:35:52;;;;;;;;;;;18.20;99.90;;;;;;5051074;28;19991;-58
2022/10/27 11:38:24;;;;;;;;;;;18.30;99.90;;;;;;5052351;28;19929;-58
2022/10/27 11:40:56;;;;;;;;;;;18.30;99.90;;;;;;5052599;28;20128;-58
2022/10/27 11:43:27;;;;;;;;;;;18.40;99.90;;;;;;5052014;28;20402;-58
2022/10/27 11:45:57;;;;;;;;;;;18.50;99.90;;;;;;5051740;28;19935;-58
2022/10/27 11:48:28;;;;;;;;;;;18.60;99.90;;;;;;5052557;28;19928;-58
2022/10/27 11:50:58;;;;;;;;;;;18.60;99.90;;;;;;5054451;28;20371;-58
2022/10/27 11:53:24;;;;;;;;;;;18.70;99.90;;;;;;5052801;28;19935;-58
2022/10/27 11:56:01;;;;;;;;;;;18.80;99.90;;;;;;5052587;28;20624;-58
2022/10/27 11:58:34;;;;;;;;;;;18.80;99.90;;;;;;5052691;28;19929;-58
2022/10/27 12:01:04;;;;;;;;;;;18.90;99.90;;;;;;5051891;28;19933;-58
2022/10/27 12:03:47;;;;;;;;;;;19.00;99.90;;;;;;5052324;28;20372;-58
2022/10/27 12:06:17;;;;;;;;;;;19.00;99.90;;;;;;5051786;28;19928;-58
2022/10/27 12:08:48;;;;;;;;;;;19.00;99.90;;;;;;5052620;28;19932;-58
2022/10/27 12:11:21;;;;;;;;;;;19.00;99.90;;;;;;5052286;28;20632;-58
2022/10/27 12:13:52;;;;;;;;;;;19.00;99.90;;;;;;5051611;28;20422;-58
2022/10/27 12:16:22;;;;;;;;;;;18.90;99.90;;;;;;5051565;28;19960;-58
2022/10/27 12:18:51;;;;;;;;;;;19.00;99.90;;;;;;5052068;28;20371;-58
2022/10/27 12:21:20;;;;;;;;;;;19.00;99.90;;;;;;5052489;28;19932;-58
2022/10/27 12:23:52;;;;;;;;;;;19.00;99.90;;;;;;5052436;28;20427;-58
2022/10/27 12:26:20;;;;;;;;;;;19.10;99.90;;;;;;5051842;28;19929;-58
2022/10/27 12:28:48;;;;;;;;;;;19.10;99.90;;;;;;5051165;28;19936;-57
2022/10/27 12:31:18;;;;;;;;;;;19.00;99.90;;;;;;5051696;28;19932;-58
2022/10/27 12:33:46;;;;;;;;;;;19.00;99.90;;;;;;5050826;28;19928;-58
2022/10/27 12:36:17;;;;;;;;;;;19.00;99.90;;;;;;5053020;28;19928;-58
2022/10/27 12:38:47;;;;;;;;;;;19.00;99.90;;;;;;5050821;28;19929;-58
2022/10/27 12:41:20;;;;;;;;;;;18.90;99.90;;;;;;5050424;28;19933;-58
2022/10/27 12:43:51;;;;;;;;;;;18.90;99.90;;;;;;5050804;28;19929;-58
2022/10/27 12:46:27;;;;;;;;;;;19.00;99.90;;;;;;5051417;28;20300;-58
2022/10/27 12:48:58;;;;;;;;;;;18.90;99.90;;;;;;5052644;28;20311;-58
2022/10/27 12:51:29;;;;;;;;;;;18.90;99.90;;;;;;5052505;28;19940;-58
2022/10/27 12:54:01;;;;;;;;;;;18.90;99.90;;;;;;5051717;28;20472;-58
2022/10/27 12:56:32;;;;;;;;;;;18.90;99.90;;;;;;5052188;28;20426;-58
2022/10/27 12:59:04;;;;;;;;;;;18.80;99.90;;;;;;5050976;28;19928;-58
2022/10/27 13:01:37;;;;;;;;;;;18.80;99.90;;;;;;5052196;28;21101;-58
2022/10/27 13:04:20;;;;;;;;;;;18.80;99.90;;;;;;5052074;28;19979;-58
2022/10/27 13:06:53;;;;;;;;;;;18.80;99.90;;;;;;5051573;28;20058;-58
2022/10/27 13:09:30;;;;;;;;;;;18.80;99.90;;;;;;5050666;28;19928;-58
2022/10/27 13:12:04;;;;;;;;;;;18.80;99.90;;;;;;5051710;28;20262;-58
2022/10/27 13:14:48;;;;;;;;;;;18.80;99.90;;;;;;5052926;28;19928;-58
2022/10/27 13:17:23;;;;;;;;;;;18.80;99.90;;;;;;5007610;28;19963;-58
2022/10/27 13:19:53;;;;;;;;;;;18.80;99.90;;;;;;5052280;28;20109;-58
2022/10/27 13:22:23;;;;;;;;;;;18.80;99.90;;;;;;5052027;28;19933;-58
2022/10/27 13:24:54;;;;;;;;;;;18.80;99.90;;;;;;5050198;28;20363;-58
2022/10/27 13:27:26;;;;;;;;;;;18.80;99.90;;;;;;5051574;28;20647;-59
2022/10/27 13:29:55;;;;;;;;;;;18.70;99.90;;;;;;5049983;28;19933;-58
2022/10/27 13:32:31;;;;;;;;;;;18.70;99.90;;;;;;5051152;28;19932;-58
2022/10/27 13:35:13;;;;;;;;;;;18.70;99.90;;;;;;5051247;28;19935;-58
2022/10/27 13:37:40;;;;;;;;;;;18.70;99.90;;;;;;5033762;28;19929;-58
2022/10/27 13:40:22;;;;;;;;;;;18.70;99.90;;;;;;5051670;28;19929;-59
2022/10/27 13:42:49;;;;;;;;;;;18.70;99.90;;;;;;5051278;28;19933;-58
2022/10/27 13:45:43;;;;;;;;;;;18.70;99.90;;;;;;5051673;28;19936;-58
2022/10/27 13:48:28;;;;;;;;;;;18.70;99.90;;;;;;5050309;28;21209;-58
2022/10/27 13:50:56;;;;;;;;;;;18.70;99.90;;;;;;5050204;28;19935;-58
2022/10/27 13:53:32;;;;;;;;;;;18.60;99.90;;;;;;5052140;28;20366;-58
2022/10/27 13:56:00;;;;;;;;;;;18.60;99.90;;;;;;5051083;28;19928;-58
2022/10/27 13:58:44;;;;;;;;;;;18.60;99.90;;;;;;5049624;28;20031;-58
2022/10/27 14:01:23;;;;;;;;;;;18.60;99.90;;;;;;5050681;28;19929;-59
2022/10/27 14:04:13;;;;;;;;;;;18.50;99.90;;;;;;5051090;28;19933;-58
2022/10/27 14:06:42;;;;;;;;;;;18.50;99.90;;;;;;5022650;28;19935;-58
2022/10/27 14:09:20;;;;;;;;;;;18.50;99.90;;;;;;5050771;28;19928;-58
2022/10/27 14:11:48;;;;;;;;;;;18.40;99.90;;;;;;5049993;28;19936;-58
2022/10/27 14:14:19;;;;;;;;;;;18.40;99.90;;;;;;5051748;28;19933;-58
2022/10/27 14:16:46;;;;;;;;;;;18.30;99.90;;;;;;5049406;28;21101;-58
2022/10/27 14:19:14;;;;;;;;;;;18.20;99.90;;;;;;5051781;28;19928;-58
2022/10/27 14:21:44;;;;;;;;;;;18.10;99.90;;;;;;5051482;28;19971;-58
2022/10/27 14:24:15;;;;;;;;;;;18.10;99.90;;;;;;5051847;28;19933;-58
2022/10/27 14:26:41;;;;;;;;;;;18.00;99.90;;;;;;5048788;28;20460;-58
2022/10/27 14:29:18;;;;;;;;;;;18.00;99.90;;;;;;5047801;28;20818;-58